createdAt,value
2017-12-20T00:00:12.247Z,0.4
2017-12-20T00:15:02.551Z,0.4
2017-12-20T00:30:04.007Z,0.4
2017-12-20T01:00:03.481Z,0.5
2017-12-20T01:30:02.951Z,0.6
2017-12-20T01:45:03.198Z,0.5
2017-12-20T02:01:35.801Z,0.5
2017-12-20T02:15:03.240Z,0.4
2017-12-20T02:30:02.658Z,0.5
2017-12-20T02:45:03.177Z,0.5
2017-12-20T03:00:02.817Z,0.6
2017-12-20T03:15:27.246Z,0.5
2017-12-20T03:30:02.563Z,0.6
2017-12-20T03:46:21.247Z,0.6
2017-12-20T04:00:14.846Z,0.6
2017-12-20T04:15:02.655Z,0.5
2017-12-20T04:30:08.945Z,0.6
2017-12-20T04:45:12.405Z,0.6
2017-12-20T05:00:02.700Z,0.6
2017-12-20T05:15:04.194Z,0.5
2017-12-20T05:30:03.399Z,0.6
2017-12-20T06:00:03.192Z,0.6
2017-12-20T06:15:02.486Z,0.6
2017-12-20T06:30:02.955Z,0.6
2017-12-20T06:45:03.987Z,0.6
2017-12-20T07:00:12.905Z,0.6
2017-12-20T07:15:21.333Z,0.6
2017-12-20T07:30:02.816Z,0.6
2017-12-20T07:45:03.256Z,0.7
2017-12-20T08:00:03.154Z,0.9
2017-12-20T08:16:00.526Z,0.9
2017-12-20T08:32:10.984Z,1.1
2017-12-20T08:45:21.479Z,1
2017-12-20T09:00:04.473Z,1.2
2017-12-20T09:30:06.147Z,1.2
2017-12-20T09:45:12.503Z,1.5
2017-12-20T10:15:02.353Z,1.6
2017-12-20T10:30:03.182Z,1.6
2017-12-20T10:45:03.536Z,1.8
2017-12-20T11:00:21.619Z,1.8
2017-12-20T11:15:02.976Z,1.8
2017-12-20T11:30:02.430Z,1.8
2017-12-20T11:45:03.218Z,1.9
2017-12-20T12:15:02.957Z,2.1
2017-12-20T12:30:02.393Z,2.2
2017-12-20T12:45:11.638Z,2.2
2017-12-20T13:00:03.793Z,2.1
2017-12-20T13:15:03.073Z,2.1
2017-12-20T13:30:02.541Z,2.1
2017-12-20T13:45:02.946Z,2
2017-12-20T14:00:03.571Z,2
2017-12-20T14:15:03.739Z,2
2017-12-20T14:30:03.091Z,2.1
2017-12-20T14:45:03.156Z,2.1
2017-12-20T15:00:02.461Z,2
2017-12-20T15:15:02.800Z,1.9
2017-12-20T15:30:04.085Z,1.8
2017-12-20T15:45:09.396Z,1.8
2017-12-20T16:00:02.644Z,1.8
2017-12-20T16:15:02.864Z,1.7
2017-12-20T16:30:03.260Z,1.7
2017-12-20T16:45:03.745Z,1.6
2017-12-20T17:00:04.076Z,1.5
2017-12-20T17:15:02.392Z,1.4
2017-12-20T17:30:02.697Z,1.4
2017-12-20T17:45:03.023Z,1.5
2017-12-20T18:00:11.191Z,1.6
2017-12-20T18:15:03.880Z,1.6
2017-12-20T18:30:02.657Z,1.5
2017-12-20T18:45:03.178Z,1.6
2017-12-20T19:00:02.836Z,1.5
2017-12-20T19:17:12.030Z,1.6
2017-12-20T19:30:20.418Z,1.4
2017-12-20T19:45:03.120Z,1.4
2017-12-20T20:00:02.532Z,1.4
2017-12-20T20:16:05.242Z,1.4
2017-12-20T20:30:05.196Z,1.5
2017-12-20T20:45:05.160Z,1.5
2017-12-20T21:00:02.549Z,1.5
2017-12-20T21:15:03.087Z,1.6
2017-12-20T21:31:46.276Z,1.6
2017-12-20T21:45:03.043Z,1.6
2017-12-20T22:01:46.281Z,1.6
2017-12-20T22:15:02.627Z,1.5
2017-12-20T22:30:03.452Z,1.6
2017-12-20T22:45:02.254Z,1.5
2017-12-20T23:01:20.526Z,1.5
2017-12-20T23:15:02.854Z,1.6
2017-12-20T23:30:03.564Z,1.6
2017-12-20T23:45:02.930Z,1.5
